Time;durP1;ratioP1;P1;durP2;ratioP2;P2;SDS_P1;SDS_P2;PMS_P1;PMS_P2;Temp;Humidity;BMP_temperature;BMP_pressure;BME280_temperature;BME280_humidity;BME280_pressure;Samples;Min_cycle;Max_cycle;Signal;HPM_P1;HPM_P2
2022/11/02 00:00:30;;;;;;;5.65;1.17;;;14.60;99.90;;;14.83;98.28;101144.31;5185514;28;20107;-71
2022/11/02 00:03:03;;;;;;;3.28;0.95;;;14.60;99.90;;;14.79;98.01;101134.59;5185710;28;20033;-71
2022/11/02 00:05:37;;;;;;;6.55;0.95;;;14.60;99.90;;;14.80;98.19;101139.91;5185609;28;20073;-71
2022/11/02 00:08:10;;;;;;;7.82;1.20;;;14.60;99.90;;;14.80;98.09;101138.97;5185267;28;20050;-71
2022/11/02 00:10:42;;;;;;;8.38;1.10;;;14.70;99.90;;;14.84;98.05;101133.84;5184898;28;20042;-70
2022/11/02 00:13:14;;;;;;;6.13;0.95;;;14.70;99.90;;;14.85;98.08;101130.34;5185194;28;20034;-71
2022/11/02 00:15:47;;;;;;;5.75;1.42;;;14.60;99.90;;;14.84;97.77;101132.97;5184431;28;20399;-71
2022/11/02 00:18:19;;;;;;;6.13;0.93;;;14.70;99.90;;;14.85;98.15;101134.72;5184830;28;20100;-71
2022/11/02 00:20:52;;;;;;;3.33;0.85;;;14.70;99.90;;;14.83;98.16;101139.94;5184780;28;20042;-70
2022/11/02 00:23:24;;;;;;;3.38;0.80;;;14.70;99.90;;;14.83;98.27;101124.19;5185372;28;20034;-70
2022/11/02 00:25:57;;;;;;;5.00;1.08;;;14.60;99.90;;;14.82;97.95;101126.81;5167875;28;20050;-71
2022/11/02 00:28:30;;;;;;;5.57;1.30;;;14.60;99.90;;;14.76;97.64;101130.16;5185208;28;20410;-71
2022/11/02 00:31:02;;;;;;;3.10;0.77;;;14.60;99.90;;;14.77;98.07;101126.69;5185020;28;20057;-71
2022/11/02 00:33:35;;;;;;;4.50;0.85;;;14.60;99.90;;;14.79;98.60;101140.72;5184666;28;20534;-70
2022/11/02 00:36:09;;;;;;;4.72;1.50;;;14.60;99.90;;;14.87;98.60;101146.16;5184848;28;20116;-71
2022/11/02 00:38:42;;;;;;;2.67;0.73;;;14.70;99.90;;;14.88;97.70;101146.19;5184593;28;20718;-71
2022/11/02 00:41:15;;;;;;;6.05;1.00;;;14.70;99.90;;;14.82;97.34;101132.94;5184238;28;20053;-71
2022/11/02 00:43:47;;;;;;;5.07;0.93;;;14.60;99.90;;;14.79;97.97;101138.09;5167002;28;20037;-71
2022/11/02 00:46:20;;;;;;;4.35;0.85;;;14.60;99.90;;;14.79;98.42;101143.34;5167131;28;20137;-71
2022/11/02 00:48:52;;;;;;;2.95;0.85;;;14.70;99.90;;;14.78;98.91;101146.81;5184352;28;20049;-70
2022/11/02 00:51:26;;;;;;;5.03;0.90;;;14.60;99.90;;;14.81;98.45;101141.66;5166690;28;20068;-70
2022/11/02 00:53:58;;;;;;;3.83;1.00;;;14.70;99.90;;;14.80;98.03;101139.91;5166791;28;20511;-70
2022/11/02 00:56:30;;;;;;;6.03;1.17;;;14.60;99.90;;;14.76;98.14;101145.91;5184235;28;20096;-71
2022/11/02 00:59:02;;;;;;;4.07;0.90;;;14.60;99.90;;;14.77;98.31;101142.44;5184156;28;20108;-71
2022/11/02 01:01:35;;;;;;;7.28;1.10;;;14.60;99.90;;;14.76;98.35;101130.16;5166528;28;20077;-71
2022/11/02 01:04:09;;;;;;;6.38;1.10;;;14.60;99.90;;;14.78;98.17;101138.06;5167005;28;20053;-70
2022/11/02 01:06:43;;;;;;;4.50;1.10;;;14.60;99.90;;;14.77;97.95;101142.44;5166566;28;20073;-71
2022/11/02 01:09:15;;;;;;;;;;;14.60;99.90;;;14.75;98.38;101132.75;5184315;28;20494;-70
2022/11/02 01:11:48;;;;;;;4.63;1.00;;;14.60;99.90;;;14.75;98.83;101138.91;5166304;28;19921;-71
2022/11/02 01:14:20;;;;;;;4.45;0.90;;;14.60;99.90;;;14.75;98.78;101141.50;5166587;28;20594;-70
2022/11/02 01:16:52;;;;;;;3.38;1.17;;;14.60;99.90;;;14.73;98.67;101139.69;5184386;28;20045;-71
2022/11/02 01:19:25;;;;;;;7.05;1.35;;;14.60;99.90;;;14.81;98.84;101148.66;5166170;28;20100;-70
2022/11/02 01:21:59;;;;;;;4.47;1.10;;;14.60;99.90;;;14.78;98.67;101138.94;5183859;28;20049;-71
2022/11/02 01:24:31;;;;;;;2.90;0.90;;;14.60;99.90;;;14.76;99.31;101147.66;5183937;28;20495;-70
2022/11/02 01:27:04;;;;;;;4.28;1.00;;;14.60;99.90;;;14.79;99.47;101150.34;5183670;28;20042;-70
2022/11/02 01:29:37;;;;;;;8.65;1.30;;;14.60;99.90;;;14.77;99.29;101147.69;5166196;28;20521;-71
2022/11/02 01:32:09;;;;;;;6.25;1.23;;;14.60;99.90;;;14.72;99.25;101156.28;5184081;28;20049;-70
2022/11/02 01:34:41;;;;;;;3.50;1.23;;;14.60;99.90;;;14.71;98.88;101141.41;5166888;28;20133;-70
2022/11/02 01:37:15;;;;;;;6.75;2.00;;;14.50;99.90;;;14.69;99.68;101146.63;5184170;28;20387;-71
2022/11/02 01:39:47;;;;;;;4.82;1.08;;;14.50;99.90;;;14.69;99.78;101149.25;5183883;28;20498;-70
2022/11/02 01:42:21;;;;;;;4.97;1.05;;;14.50;99.90;;;14.73;99.90;101148.44;5183624;28;20050;-70
2022/11/02 01:44:53;;;;;;;5.82;1.35;;;14.50;99.90;;;14.74;100.00;101152.88;5183867;28;20081;-70
2022/11/02 01:47:29;;;;;;;5.55;1.00;;;14.60;99.90;;;14.78;100.00;101159.06;5166167;28;20049;-70
2022/11/02 01:50:07;;;;;;;7.22;1.40;;;14.60;99.90;;;14.76;100.00;101150.28;5183555;28;20060;-70
2022/11/02 01:52:41;;;;;;;7.32;1.42;;;14.60;99.90;;;14.77;99.87;101157.28;5183563;28;20459;-70
2022/11/02 01:55:18;;;;;;;5.13;1.30;;;14.60;99.90;;;14.78;99.97;101144.19;5184139;28;20045;-70
2022/11/02 01:57:55;;;;;;;4.15;1.13;;;14.60;99.90;;;14.75;100.00;101136.28;5183574;28;20069;-70
2022/11/02 02:00:28;;;;;;;6.32;1.02;;;14.60;99.90;;;14.75;100.00;101138.91;5165915;28;20148;-70
2022/11/02 02:03:06;;;;;;;3.40;0.80;;;14.60;99.90;;;14.72;100.00;101133.56;5183857;28;20100;-71
2022/11/02 02:05:43;;;;;;;4.00;0.85;;;14.50;99.90;;;14.66;100.00;101134.28;5183768;28;20042;-70
2022/11/02 02:08:21;;;;;;;7.43;1.30;;;14.50;99.90;;;14.60;100.00;101125.38;5183076;28;20376;-71
2022/11/02 02:10:56;;;;;;;3.97;0.90;;;14.50;99.90;;;14.57;100.00;101130.59;5183901;28;20721;-71
2022/11/02 02:13:29;;;;;;;3.70;1.17;;;14.40;99.90;;;14.50;100.00;101129.53;5183786;28;20053;-70
2022/11/02 02:16:14;;;;;;;2.95;1.05;;;14.40;99.90;;;14.48;100.00;101127.75;5166428;28;20050;-70
2022/11/02 02:18:53;;;;;;;5.80;1.13;;;14.30;99.90;;;14.45;100.00;101130.25;5182986;28;20072;-71
2022/11/02 02:21:42;;;;;;;3.60;1.08;;;14.30;99.90;;;14.42;100.00;101130.19;5166409;28;20073;-70
2022/11/02 02:24:43;;;;;;;6.63;1.20;;;14.30;99.90;;;14.39;100.00;101134.50;5183564;28;20387;-70
2022/11/02 02:27:28;;;;;;;3.70;0.95;;;14.20;99.90;;;14.35;100.00;101132.66;5166092;28;20049;-70
2022/11/02 02:30:08;;;;;;;4.10;0.90;;;14.20;99.90;;;14.30;100.00;101129.03;5183071;28;20052;-71
2022/11/02 02:32:48;;;;;;;3.85;1.00;;;14.20;99.90;;;14.27;100.00;101134.19;5166366;28;20050;-71
2022/11/02 02:35:27;;;;;;;2.40;1.00;;;14.20;99.90;;;14.24;100.00;101131.50;5165469;28;20084;-71
2022/11/02 02:38:03;;;;;;;4.45;1.00;;;14.10;99.90;;;14.21;100.00;101133.13;5165442;28;20100;-71
2022/11/02 02:40:41;;;;;;;2.30;1.13;;;14.10;99.90;;;14.19;100.00;101140.97;5168774;28;20069;-71
2022/11/02 02:43:18;;;;;;;5.07;1.00;;;14.10;99.90;;;14.18;100.00;101139.19;5169702;28;20100;-71
2022/11/02 02:45:55;;;;;;;7.28;1.20;;;14.10;99.90;;;14.15;100.00;101141.75;5186691;28;20123;-70
2022/11/02 02:48:27;;;;;;;5.47;1.08;;;14.10;99.90;;;14.12;100.00;101146.91;5187158;28;20502;-71
2022/11/02 02:51:06;;;;;;;4.15;1.20;;;14.00;99.90;;;14.10;100.00;101135.50;5187221;28;20033;-70
2022/11/02 02:53:43;;;;;;;5.63;1.17;;;14.00;99.90;;;14.06;100.00;101138.88;5169306;28;20045;-70
2022/11/02 02:56:19;;;;;;;7.10;1.60;;;13.90;99.90;;;14.04;100.00;101145.84;5186508;28;20048;-70
2022/11/02 02:58:56;;;;;;;3.42;1.00;;;13.90;99.90;;;14.00;100.00;101141.34;5169020;28;20056;-70
2022/11/02 03:01:32;;;;;;;4.97;0.90;;;13.90;99.90;;;13.96;100.00;101131.66;5169106;28;20084;-70
2022/11/02 03:04:04;;;;;;;5.38;1.38;;;13.90;99.90;;;13.95;100.00;101140.31;5169190;28;20453;-71
2022/11/02 03:06:37;;;;;;;4.82;1.30;;;13.80;99.90;;;13.93;100.00;101136.78;5168777;28;20141;-71
2022/11/02 03:09:21;;;;;;;5.55;1.10;;;13.80;99.90;;;13.89;100.00;101140.16;5168586;28;20058;-70
2022/11/02 03:12:11;;;;;;;3.15;0.90;;;13.80;99.90;;;13.87;100.00;101136.63;5186390;28;20042;-70
2022/11/02 03:15:04;;;;;;;5.95;1.55;;;13.80;99.90;;;13.83;100.00;101133.94;5169265;28;20034;-70
2022/11/02 03:17:55;;;;;;;6.28;1.52;;;13.70;99.90;;;13.82;100.00;101145.25;5168823;28;20466;-71
2022/11/02 03:20:39;;;;;;;2.80;1.20;;;13.70;99.90;;;13.81;100.00;101147.81;5168111;28;20050;-75
2022/11/02 03:23:21;;;;;;;8.63;1.27;;;13.70;99.90;;;13.81;100.00;101153.94;5168372;28;20050;-75
2022/11/02 03:26:02;;;;;;;3.75;0.93;;;13.70;99.90;;;13.79;100.00;101152.16;5168484;28;20080;-74
2022/11/02 03:28:56;;;;;;;2.75;0.98;;;13.70;99.90;;;13.77;100.00;101157.34;5167927;28;20069;-73
2022/11/02 03:31:37;;;;;;;4.85;1.20;;;13.70;99.90;;;13.76;100.00;101160.81;5168358;28;20095;-74
2022/11/02 03:34:23;;;;;;;5.38;1.35;;;13.70;99.90;;;13.76;100.00;101166.06;5168194;28;20045;-75
2022/11/02 03:37:02;;;;;;;4.68;1.17;;;13.60;99.90;;;13.73;100.00;101168.56;5167997;28;20592;-75
2022/11/02 03:39:41;;;;;;;3.67;1.10;;;13.60;99.90;;;13.72;100.00;101174.66;5167631;28;20136;-75
2022/11/02 03:42:17;;;;;;;5.68;1.25;;;13.60;99.90;;;13.70;100.00;101170.25;5167987;28;20503;-74
2022/11/02 03:44:57;;;;;;;5.38;1.30;;;13.60;99.90;;;13.69;100.00;101174.59;5167997;28;20034;-74
2022/11/02 03:47:32;;;;;;;2.97;0.98;;;13.60;99.90;;;13.70;100.00;101181.59;5185714;28;20061;-75
2022/11/02 03:50:11;;;;;;;2.65;0.90;;;13.60;99.90;;;13.71;100.00;101183.38;5166564;28;20045;-74
2022/11/02 03:52:47;;;;;;;4.80;1.10;;;13.60;99.90;;;13.71;100.00;101183.38;5185414;28;20048;-73
2022/11/02 03:55:26;;;;;;;3.42;1.05;;;13.60;99.90;;;13.67;100.00;101184.13;5167984;28;20521;-75
2022/11/02 03:57:59;;;;;;;6.25;1.00;;;13.60;99.90;;;13.68;100.00;101188.50;5185373;28;20064;-74
2022/11/02 04:00:36;;;;;;;5.60;1.20;;;13.60;99.90;;;13.71;100.00;101188.63;5167863;28;20045;-74
2022/11/02 04:03:14;;;;;;;2.83;1.13;;;13.60;99.90;;;13.71;100.00;101192.97;5167410;28;20054;-74
2022/11/02 04:05:51;;;;;;;4.80;1.13;;;13.60;99.90;;;13.69;100.00;101192.94;5167747;28;20038;-74
2022/11/02 04:08:34;;;;;;;2.97;1.00;;;13.60;99.90;;;13.67;100.00;101197.22;5166798;28;20038;-74
2022/11/02 04:19:47;;;;;;;3.75;0.93;;;13.50;99.90;;;13.57;100.00;101210.91;5166422;28;20057;-74
2022/11/02 04:25:21;;;;;;;4.75;1.10;;;13.40;99.90;;;13.55;100.00;101223.06;5167299;28;20045;-74
2022/11/02 04:28:09;;;;;;;5.78;0.98;;;13.40;99.90;;;13.52;100.00;101222.97;5182515;22;20140;-71
2022/11/02 04:30:50;;;;;;;4.97;1.13;;;13.40;99.90;;;13.48;100.00;101216.75;5182595;28;20042;-70
2022/11/02 04:33:33;;;;;;;5.95;1.10;;;13.40;99.90;;;13.45;100.00;101231.50;5167084;28;20088;-71
2022/11/02 04:36:10;;;;;;;2.78;0.98;;;13.40;99.90;;;13.42;100.00;101237.50;5166983;28;20081;-70
2022/11/02 04:38:47;;;;;;;1.88;1.00;;;13.30;99.90;;;13.40;100.00;101233.97;5183289;28;20056;-71
2022/11/02 04:41:43;;;;;;;3.88;1.20;;;13.30;99.90;;;13.38;100.00;101251.38;5184484;28;20057;-71
2022/11/02 04:44:38;;;;;;;3.55;1.20;;;13.20;99.90;;;13.37;100.00;101248.72;5184050;28;20044;-71
2022/11/02 04:47:18;;;;;;;5.93;1.23;;;13.20;99.90;;;13.34;100.00;101254.72;5167562;28;20046;-71
2022/11/02 04:49:50;;;;;;;3.75;0.93;;;13.20;99.90;;;13.30;100.00;101253.78;5183781;28;20048;-71
2022/11/02 04:52:24;;;;;;;3.35;1.10;;;13.20;99.90;;;13.29;100.00;101261.53;5167329;28;20069;-71
2022/11/02 04:54:58;;;;;;;5.13;1.10;;;13.20;99.90;;;13.27;100.00;101265.84;5185202;28;20062;-71
2022/11/02 04:57:31;;;;;;;3.00;1.10;;;13.10;99.90;;;13.25;100.00;101265.81;5167781;28;20064;-71
2022/11/02 05:00:08;;;;;;;2.47;0.93;;;13.20;99.90;;;13.25;100.00;101272.78;5183805;28;20525;-71
2022/11/02 05:02:40;;;;;;;3.53;1.17;;;13.10;99.90;;;13.24;100.00;101263.16;5184751;28;20056;-71
2022/11/02 05:05:14;;;;;;;4.90;0.95;;;13.10;99.90;;;13.23;100.00;101267.47;5166829;28;20041;-73
2022/11/02 05:07:47;;;;;;;3.40;0.75;;;13.10;99.90;;;13.21;100.00;101271.78;5167290;28;20073;-71
2022/11/02 05:10:21;;;;;;;2.97;1.60;;;13.10;99.90;;;13.20;100.00;101272.63;5166887;28;20418;-71
2022/11/02 05:12:57;;;;;;;5.70;1.23;;;13.10;99.90;;;13.18;100.00;101279.53;5167043;28;20046;-71
2022/11/02 05:15:32;;;;;;;3.85;1.10;;;13.10;99.90;;;13.17;100.00;101277.75;5183251;28;20049;-71
2022/11/02 05:18:07;;;;;;;3.90;0.90;;;13.00;99.90;;;13.16;100.00;101289.03;5166883;28;20080;-70
2022/11/02 05:20:41;;;;;;;4.53;1.45;;;13.10;99.90;;;13.13;100.00;101282.84;5166731;28;20502;-71
2022/11/02 05:23:15;;;;;;;5.53;1.40;;;13.10;99.90;;;13.12;100.00;101284.56;5184831;28;20439;-71
2022/11/02 05:25:58;;;;;;;4.72;1.25;;;13.00;99.90;;;13.13;100.00;101288.94;5183193;28;20046;-71
2022/11/02 05:28:31;;;;;;;6.35;1.75;;;13.00;99.90;;;13.16;100.00;101296.00;5166810;28;20128;-71
2022/11/02 05:31:05;;;;;;;5.22;1.35;;;13.00;99.90;;;13.16;100.00;101296.88;5166688;28;20053;-71
2022/11/02 05:33:39;;;;;;;;;;;13.00;99.90;;;13.14;100.00;101303.81;5167484;28;20052;-70
2022/11/02 05:36:16;;;;;;;2.88;0.93;;;13.00;99.90;;;13.15;100.00;101305.59;5183331;28;19922;-71
2022/11/02 05:38:53;;;;;;;5.20;1.38;;;13.00;99.90;;;13.16;100.00;101301.22;5166911;28;20133;-71
2022/11/02 05:41:27;;;;;;;5.25;1.17;;;13.10;99.90;;;13.17;100.00;101301.31;5184354;28;20092;-71
2022/11/02 05:44:01;;;;;;;5.97;1.20;;;13.10;99.90;;;13.17;100.00;101297.78;5167190;28;20060;-71
2022/11/02 05:46:36;;;;;;;3.00;1.10;;;13.10;99.90;;;13.16;100.00;101312.59;5165969;28;20494;-71
2022/11/02 05:49:08;;;;;;;2.55;1.00;;;13.00;99.90;;;13.14;100.00;101314.28;5184088;28;20050;-71
2022/11/02 05:51:43;;;;;;;4.25;1.10;;;13.00;99.90;;;13.13;100.00;101312.50;5184084;28;20037;-71
2022/11/02 05:54:15;;;;;;;3.60;1.00;;;13.00;99.90;;;13.11;100.00;101319.44;5184221;28;20112;-71
2022/11/02 05:56:49;;;;;;;3.72;1.17;;;13.00;99.90;;;13.10;100.00;101333.34;5184177;28;20050;-71
2022/11/02 05:59:21;;;;;;;5.68;0.90;;;13.00;99.90;;;13.09;100.00;101331.56;5184185;28;20045;-71
2022/11/02 06:01:54;;;;;;;4.68;1.02;;;13.00;99.90;;;13.08;100.00;101339.38;5166364;28;20041;-71
2022/11/02 06:04:26;;;;;;;3.47;1.00;;;12.90;99.90;;;13.07;100.00;101332.34;5166441;28;20061;-71
2022/11/02 06:06:58;;;;;;;5.07;1.27;;;12.90;99.90;;;13.06;100.00;101341.06;5184532;28;20054;-70
2022/11/02 06:09:31;;;;;;;3.83;0.90;;;12.90;99.90;;;13.06;100.00;101346.28;5184282;28;20517;-70
2022/11/02 06:12:05;;;;;;;2.33;0.90;;;12.90;99.90;;;13.07;100.00;101355.91;5183767;28;20115;-70
2022/11/02 06:14:37;;;;;;;3.92;1.10;;;12.90;99.90;;;13.09;100.00;101357.72;5186641;28;20092;-71
2022/11/02 06:17:10;;;;;;;2.58;1.08;;;12.90;99.90;;;13.10;100.00;101358.63;5186326;28;20116;-71
2022/11/02 06:19:42;;;;;;;3.25;1.17;;;13.00;99.90;;;13.10;100.00;101369.97;5188248;28;20104;-71
2022/11/02 06:22:15;;;;;;;3.58;1.40;;;13.00;99.90;;;13.11;100.00;101365.66;5187458;28;20409;-70
2022/11/02 06:24:48;;;;;;;4.15;1.50;;;13.00;99.90;;;13.11;100.00;101377.03;5187461;28;20717;-71
2022/11/02 06:27:22;;;;;;;4.68;1.63;;;13.00;99.90;;;13.12;100.00;101378.78;5187006;28;20132;-71
2022/11/02 06:29:55;;;;;;;5.85;1.50;;;13.00;99.90;;;13.13;100.00;101383.19;5169954;28;20096;-71
2022/11/02 06:32:27;;;;;;;6.38;1.55;;;13.00;99.90;;;13.14;100.00;101382.34;5187341;28;20088;-71
2022/11/02 06:34:59;;;;;;;2.95;1.13;;;13.00;99.90;;;13.18;100.00;101386.84;5188162;28;20116;-71
2022/11/02 06:37:34;;;;;;;6.53;1.40;;;13.00;99.90;;;13.19;100.00;101388.63;5187635;28;20049;-71
2022/11/02 06:40:07;;;;;;;;;;;13.00;99.90;;;13.22;100.00;101391.38;5188054;28;20049;-72
2022/11/02 06:42:41;;;;;;;4.72;1.20;;;13.10;99.90;;;13.24;100.00;101409.78;5187357;28;19925;-72
2022/11/02 06:45:14;;;;;;;4.20;1.90;;;13.10;99.90;;;13.27;100.00;101405.50;5170024;28;20049;-71
2022/11/02 06:47:49;;;;;;;10.85;2.30;;;13.10;99.90;;;13.28;100.00;101406.41;5187099;28;20469;-70
2022/11/02 06:50:21;;;;;;;7.57;1.58;;;13.10;99.90;;;13.28;100.00;101411.63;5187450;28;20050;-70
2022/11/02 06:52:54;;;;;;;4.18;1.10;;;13.10;99.90;;;13.31;100.00;101417.00;5185915;28;20132;-71
2022/11/02 06:55:26;;;;;;;5.00;1.30;;;13.20;99.90;;;13.32;100.00;101417.88;5187147;28;20046;-71
2022/11/02 06:58:00;;;;;;;4.63;1.60;;;13.20;99.90;;;13.33;100.00;101430.13;5187190;28;20419;-71
2022/11/02 07:00:32;;;;;;;2.88;1.23;;;13.20;99.90;;;13.35;100.00;101429.31;5169474;28;20104;-71
2022/11/02 07:03:07;;;;;;;3.75;1.20;;;13.20;99.90;;;13.38;100.00;101433.78;5187117;28;20145;-69
2022/11/02 07:05:39;;;;;;;4.38;1.45;;;13.20;99.90;;;13.41;100.00;101441.75;5168849;28;20069;-56
2022/11/02 07:08:11;;;;;;;6.32;1.30;;;13.20;99.90;;;13.45;100.00;101447.13;5185660;28;20042;-57
2022/11/02 07:10:44;;;;;;;3.95;1.23;;;13.30;99.90;;;13.47;100.00;101455.94;5168794;28;20060;-57
2022/11/02 07:13:17;;;;;;;5.85;1.25;;;13.30;99.90;;;13.49;100.00;101456.84;5186334;28;20132;-56
2022/11/02 07:15:53;;;;;;;3.80;1.23;;;13.30;99.90;;;13.53;100.00;101456.13;5186841;28;20050;-57
2022/11/02 07:18:25;;;;;;;2.60;1.00;;;13.40;99.90;;;13.56;100.00;101460.56;5186043;28;20048;-56
2022/11/02 07:20:59;;;;;;;4.05;1.30;;;13.40;99.90;;;13.60;100.00;101470.31;5185830;28;20052;-56
2022/11/02 07:23:31;;;;;;;4.22;1.08;;;13.40;99.90;;;13.67;100.00;101468.78;5185732;28;20050;-56
2022/11/02 07:26:03;;;;;;;6.15;1.10;;;13.50;99.90;;;13.75;100.00;101468.19;5185499;28;20502;-56
2022/11/02 07:28:37;;;;;;;3.75;1.00;;;13.60;99.90;;;13.87;100.00;101474.69;5185441;28;20041;-56
2022/11/02 07:31:09;;;;;;;3.03;1.00;;;13.60;99.90;;;13.97;100.00;101469.78;5186233;28;20569;-56
2022/11/02 07:33:42;;;;;;;3.17;0.90;;;13.80;99.90;;;14.09;100.00;101474.53;5186122;28;20050;-57
2022/11/02 07:36:14;;;;;;;6.32;1.27;;;13.80;99.90;;;14.22;100.00;101473.19;5186479;28;20077;-56
2022/11/02 07:38:46;;;;;;;3.92;1.17;;;14.00;99.90;;;14.31;100.00;101484.84;5185766;28;20048;-56
2022/11/02 07:41:18;;;;;;;4.75;1.20;;;14.10;99.90;;;14.36;100.00;101493.75;5186355;28;20046;-57
2022/11/02 07:43:52;;;;;;;3.65;1.08;;;14.10;99.90;;;14.43;100.00;101491.31;5185861;28;20049;-56
2022/11/02 07:46:32;;;;;;;4.18;0.88;;;14.20;99.90;;;14.51;99.37;101501.19;5185425;28;20050;-57
2022/11/02 07:49:04;;;;;;;4.82;1.23;;;14.20;99.90;;;14.57;98.67;101501.38;5167434;28;20418;-56
2022/11/02 07:51:36;;;;;;;6.15;1.70;;;14.30;99.90;;;14.58;97.02;101502.28;5185091;28;20398;-56
2022/11/02 07:54:08;;;;;;;4.53;1.20;;;14.40;99.90;;;14.58;96.62;101503.16;5164198;28;20046;-56
2022/11/02 07:56:40;;;;;;;5.85;1.45;;;14.30;99.90;;;14.58;96.55;101512.78;5165218;28;20451;-56
2022/11/02 07:59:14;;;;;;;4.30;0.98;;;14.40;99.90;;;14.57;96.95;101516.25;5164203;28;20050;-57
2022/11/02 08:01:46;;;;;;;5.78;1.13;;;14.40;99.90;;;14.63;97.19;101521.69;5165057;28;20042;-57
2022/11/02 08:04:18;;;;;;;6.38;1.40;;;14.40;99.90;;;14.67;96.84;101520.94;5164626;28;20129;-57
2022/11/02 08:06:51;;;;;;;3.38;1.08;;;14.40;99.90;;;14.69;97.02;101534.97;5164430;28;20499;-58
2022/11/02 08:09:23;;;;;;;5.28;0.90;;;14.40;99.90;;;14.70;96.89;101531.50;5164883;28;20128;-58
2022/11/02 08:11:57;;;;;;;6.32;1.20;;;14.40;99.90;;;14.75;96.94;101532.53;5167882;28;20418;-57
2022/11/02 08:14:30;;;;;;;2.75;1.10;;;14.50;99.90;;;14.87;96.27;101535.53;5182513;28;20074;-57
2022/11/02 08:17:02;;;;;;;2.92;0.90;;;14.60;99.90;;;15.16;95.69;101540.69;5184947;28;20034;-57
2022/11/02 08:19:34;;;;;;;3.38;0.70;;;14.70;99.90;;;15.72;94.76;101544.91;5183737;28;20056;-58
2022/11/02 08:22:07;;;;;;;2.67;0.80;;;15.10;99.90;;;16.42;92.81;101545.69;5177725;28;20060;-57
2022/11/02 08:24:39;;;;;;;2.25;0.60;;;15.70;99.90;;;16.99;90.04;101549.59;5180263;28;20050;-58
2022/11/02 08:27:11;;;;;;;3.47;0.65;;;16.20;99.40;;;17.37;87.63;101550.34;5184814;28;20049;-57
2022/11/02 08:29:44;;;;;;;3.72;0.68;;;16.70;98.40;;;17.56;86.14;101559.50;5183576;28;20046;-58
2022/11/02 08:32:16;;;;;;;2.22;1.00;;;16.90;97.40;;;17.58;85.00;101566.56;5184515;28;20525;-58
2022/11/02 08:34:49;;;;;;;2.67;0.70;;;17.10;96.70;;;17.56;84.24;101555.09;5183086;28;20053;-57
2022/11/02 08:37:21;;;;;;;3.53;0.60;;;17.20;96.00;;;17.56;83.31;101560.38;5183783;28;20046;-58
2022/11/02 08:39:53;;;;;;;3.47;0.70;;;17.20;95.50;;;17.58;82.51;101563.94;5184090;28;20446;-57
2022/11/02 08:42:25;;;;;;;5.53;0.85;;;17.20;95.10;;;17.61;82.13;101564.00;5183815;28;20050;-58
2022/11/02 08:44:58;;;;;;;4.32;1.17;;;17.30;94.70;;;17.70;81.53;101562.38;5184041;28;20414;-57
2022/11/02 08:47:30;;;;;;;2.58;0.68;;;17.30;94.40;;;17.77;81.21;101566.94;5183901;28;20117;-58
2022/11/02 08:50:03;;;;;;;3.85;1.02;;;17.40;94.10;;;17.85;81.27;101560.03;5183663;28;20049;-58
2022/11/02 08:52:36;;;;;;;3.05;0.75;;;17.40;94.00;;;17.93;81.31;101566.34;5183269;28;20132;-58
2022/11/02 08:55:09;;;;;;;3.95;0.68;;;17.50;94.00;;;17.94;80.84;101561.97;5184318;28;20104;-57
2022/11/02 08:57:48;;;;;;;5.60;0.82;;;17.50;93.80;;;18.00;80.31;101568.22;5183889;28;20046;-58
2022/11/02 09:00:24;;;;;;;5.70;0.80;;;17.60;93.50;;;18.08;79.69;101566.59;5163125;28;20054;-58
2022/11/02 09:03:02;;;;;;;8.90;0.80;;;17.60;93.30;;;18.11;79.11;101566.63;5163405;28;20081;-58
2022/11/02 09:05:36;;;;;;;6.85;0.80;;;17.60;92.90;;;18.20;79.16;101572.94;5163175;28;20045;-58
2022/11/02 09:08:12;;;;;;;4.30;0.90;;;17.70;92.90;;;18.23;78.58;101575.59;5163114;28;20415;-57
2022/11/02 09:10:47;;;;;;;2.33;0.80;;;17.80;92.50;;;18.24;78.48;101577.38;5163719;28;20050;-59
2022/11/02 09:13:23;;;;;;;3.95;0.70;;;17.70;92.40;;;18.36;78.57;101577.56;5163468;28;20050;-58
2022/11/02 09:15:59;;;;;;;3.60;1.00;;;17.80;92.40;;;18.44;77.95;101586.50;5163629;28;20101;-58
2022/11/02 09:18:31;;;;;;;3.10;0.70;;;17.90;92.20;;;18.46;77.31;101584.78;5163003;28;20125;-57
2022/11/02 09:21:04;;;;;;;4.63;0.82;;;17.90;91.70;;;18.49;77.42;101592.72;5163776;28;20049;-57
2022/11/02 09:23:37;;;;;;;6.30;0.88;;;17.90;91.70;;;18.60;77.73;101607.00;5163079;28;20050;-57
2022/11/02 09:26:09;;;;;;;4.97;0.80;;;18.00;91.90;;;18.60;77.05;101588.50;5163333;28;20074;-57
2022/11/02 09:28:41;;;;;;;2.15;0.73;;;18.10;91.50;;;18.55;77.08;101584.03;5162553;28;20056;-58
2022/11/02 09:31:14;;;;;;;5.38;0.70;;;18.10;91.40;;;18.55;76.85;101592.81;5177762;28;20038;-57
2022/11/02 09:33:46;;;;;;;5.43;0.90;;;18.00;91.30;;;18.57;76.21;101585.81;5182570;28;20077;-59
2022/11/02 09:36:18;;;;;;;3.08;0.80;;;18.00;90.90;;;18.64;75.85;101603.50;5182885;28;20041;-58
2022/11/02 09:38:51;;;;;;;2.33;0.60;;;18.10;90.80;;;18.63;75.18;101599.09;5177638;28;20042;-57
2022/11/02 09:41:33;;;;;;;1.45;0.52;;;18.10;90.40;;;18.57;75.31;101609.56;5182360;28;20042;-58
2022/11/02 09:44:12;;;;;;;2.30;0.80;;;18.10;90.30;;;18.55;75.38;101616.59;5180910;28;20030;-60
2022/11/02 09:46:47;;;;;;;2.63;0.50;;;18.10;90.40;;;18.57;74.56;101613.97;5181476;28;20092;-58
2022/11/02 09:49:23;;;;;;;2.83;0.60;;;18.10;89.90;;;18.63;73.72;101601.75;5183015;28;20061;-59
2022/11/02 09:51:59;;;;;;;2.53;0.70;;;18.10;89.00;;;18.57;72.70;101604.28;5182215;28;20042;-59
2022/11/02 09:54:36;;;;;;;3.97;0.60;;;18.10;87.70;;;18.47;72.84;101618.22;5183351;28;20507;-58
2022/11/02 09:57:15;;;;;;;4.38;0.70;;;18.00;87.50;;;18.51;73.08;101614.75;5183726;28;20506;-58
2022/11/02 09:59:48;;;;;;;3.08;0.80;;;18.00;87.80;;;18.55;72.96;101619.22;5183615;28;20081;-57
2022/11/02 10:02:43;;;;;;;4.72;0.77;;;18.00;87.40;;;18.62;72.74;101626.38;5183505;28;20056;-58
2022/11/02 10:05:29;;;;;;;2.45;0.55;;;18.10;87.50;;;18.56;72.45;101628.91;5183546;28;20445;-57
2022/11/02 10:08:19;;;;;;;4.32;0.70;;;18.10;86.50;;;18.60;72.08;101633.41;5157732;28;20061;-57
2022/11/02 10:11:04;;;;;;;4.90;0.50;;;18.10;86.30;;;18.61;71.79;101629.88;5182721;28;20114;-55
2022/11/02 10:13:43;;;;;;;3.08;0.70;;;18.10;85.80;;;18.72;76.96;101626.56;5183214;28;20045;-58
2022/11/02 10:16:20;;;;;;;4.30;0.88;;;18.20;90.80;;;18.86;73.68;101619.72;5182750;28;20442;-57
2022/11/02 10:18:55;;;;;;;3.78;0.63;;;18.30;88.10;;;18.98;71.63;101627.81;5182723;28;20507;-57
2022/11/02 10:21:30;;;;;;;3.42;0.70;;;18.40;85.70;;;19.02;69.38;101626.97;5183125;28;20127;-57
2022/11/02 10:24:19;;;;;;;3.47;0.73;;;18.40;83.40;;;19.03;68.92;101631.38;5183042;28;20132;-58
2022/11/02 10:26:57;;;;;;;5.53;0.88;;;18.40;82.60;;;19.01;68.96;101627.84;5182729;28;20073;-58
2022/11/02 10:29:42;;;;;;;2.88;0.75;;;18.40;82.20;;;18.98;68.22;101622.53;5423216;22;20505;-56
2022/11/02 10:32:16;;;;;;;3.42;0.50;;;18.50;81.50;;;18.94;67.99;101631.28;5198185;28;20045;-58
2022/11/02 10:34:50;;;;;;;2.55;0.70;;;18.40;81.00;;;18.96;67.28;101629.53;5203562;28;20513;-55
2022/11/02 10:37:40;;;;;;;3.13;0.80;;;18.40;80.10;;;19.05;66.50;101627.03;5203852;28;20525;-56
2022/11/02 10:40:26;;;;;;;4.00;0.63;;;18.50;79.40;;;18.99;65.78;101624.31;5203201;28;20119;-57
2022/11/02 10:43:13;;;;;;;4.47;0.90;;;18.40;78.10;;;18.83;66.60;101619.66;5203643;28;20528;-58
2022/11/02 10:45:57;;;;;;;;;;;18.30;78.30;;;18.86;66.83;101622.38;5204518;28;20099;-56
2022/11/02 10:48:39;;;;;;;1.77;0.40;;;18.40;79.10;;;19.01;66.07;101633.13;5200246;28;20390;-58
2022/11/02 10:51:14;;;;;;;2.63;0.75;;;18.40;78.20;;;19.18;66.37;101630.72;5202813;28;20042;-58
2022/11/02 10:53:49;;;;;;;2.80;0.70;;;18.60;79.00;;;19.36;74.40;101624.75;5201564;28;20045;-58
2022/11/02 10:56:22;;;;;;;;;;;18.80;88.70;;;19.54;70.89;101630.25;5196140;28;20062;-59